Time;durP1;ratioP1;P1;durP2;ratioP2;P2;SDS_P1;SDS_P2;PMS_P1;PMS_P2;Temp;Humidity;BMP_temperature;BMP_pressure;BME280_temperature;BME280_humidity;BME280_pressure;Samples;Min_cycle;Max_cycle;Signal;HPM_P1;HPM_P2
2024/03/24 00:01:59;;;;;;;0.30;0.30;;;;;;;4.68;67.27;96409.75;5022508;28;20057;-71
2024/03/24 00:04:25;;;;;;;0.30;0.30;;;;;;;4.76;66.20;96411.53;5021848;28;20059;-71
2024/03/24 00:06:51;;;;;;;0.30;0.30;;;;;;;4.82;66.06;96420.34;5005463;28;20060;-70
2024/03/24 00:09:17;;;;;;;0.30;0.30;;;;;;;4.77;66.54;96417.84;5021794;28;20061;-72
2024/03/24 00:11:43;;;;;;;0.30;0.30;;;;;;;4.28;67.77;96327.50;5021660;28;20135;-71
2024/03/24 00:14:09;;;;;;;0.30;0.30;;;;;;;4.72;68.16;96398.88;5004961;28;20132;-70
2024/03/24 00:16:35;;;;;;;0.30;0.30;;;;;;;4.63;68.72;96391.59;5000708;28;20054;-71
2024/03/24 00:19:03;;;;;;;0.30;0.30;;;;;;;4.76;67.55;96383.34;4998979;28;20080;-70
2024/03/24 00:21:31;;;;;;;0.30;0.30;;;;;;;4.69;68.30;96384.72;5004765;28;20065;-70
2024/03/24 00:23:58;;;;;;;0.30;0.30;;;;;;;4.23;67.93;96300.34;5021472;28;20057;-71
2024/03/24 00:26:26;;;;;;;0.30;0.30;;;;;;;4.66;67.69;96368.94;4995388;28;20054;-70
2024/03/24 00:28:51;;;;;;;0.30;0.30;;;;;;;4.78;67.81;96370.84;4996061;28;20049;-69
2024/03/24 00:31:17;;;;;;;0.30;0.30;;;;;;;4.81;66.33;96372.09;5021354;28;20455;-70
2024/03/24 00:33:43;;;;;;;0.30;0.30;;;;;;;4.70;66.75;96371.81;5021226;28;20092;-71
2024/03/24 00:36:09;;;;;;;0.30;0.30;;;;;;;4.73;68.19;96362.09;5021025;28;20559;-69
2024/03/24 00:38:35;;;;;;;0.30;0.30;;;;;;;4.76;67.15;96358.66;5021177;28;20056;-71
2024/03/24 00:41:01;;;;;;;0.30;0.30;;;;;;;4.69;66.75;96362.00;5021557;28;20057;-71
2024/03/24 00:43:28;;;;;;;0.30;0.30;;;;;;;4.67;67.42;96358.78;5005211;28;20045;-71
2024/03/24 00:45:54;;;;;;;0.30;0.30;;;;;;;4.54;68.74;96354.50;5000692;28;20054;-69
2024/03/24 00:48:20;;;;;;;0.28;0.28;;;;;;;4.34;69.81;96350.00;5003901;28;20104;-71
2024/03/24 00:50:46;;;;;;;0.30;0.30;;;;;;;4.31;70.24;96350.69;5020907;28;20050;-70
2024/03/24 00:53:12;;;;;;;0.30;0.30;;;;;;;4.44;68.99;96350.28;5004230;28;20080;-70
2024/03/24 00:55:37;;;;;;;0.30;0.30;;;;;;;4.34;68.99;96355.47;5020762;28;20107;-71
2024/03/24 00:58:03;;;;;;;0.30;0.30;;;;;;;4.29;70.24;96348.31;5020484;28;20057;-70
2024/03/24 01:00:29;;;;;;;0.30;0.30;;;;;;;4.31;70.19;96340.53;5020867;28;20057;-70
2024/03/24 01:02:55;;;;;;;0.30;0.30;;;;;;;4.39;69.03;96336.81;5020877;28;20440;-71
2024/03/24 01:05:20;;;;;;;0.30;0.30;;;;;;;4.34;68.88;96341.78;5020294;28;20691;-71
2024/03/24 01:07:49;;;;;;;0.30;0.30;;;;;;;4.37;69.18;96339.13;5021127;28;20076;-70
2024/03/24 01:10:16;;;;;;;0.30;0.30;;;;;;;3.91;68.75;96276.69;5020824;28;20053;-71
2024/03/24 01:12:43;;;;;;;0.30;0.30;;;;;;;4.02;68.39;96294.25;5020515;28;20056;-70
2024/03/24 01:15:12;;;;;;;0.20;0.20;;;;;;;4.33;68.62;96346.44;5020285;28;20064;-69
2024/03/24 01:17:37;;;;;;;0.30;0.30;;;;;;;3.84;69.05;96264.75;5021107;28;20520;-70
2024/03/24 01:20:03;;;;;;;0.30;0.30;;;;;;;4.28;69.46;96346.69;5020213;28;20068;-72
2024/03/24 01:22:29;;;;;;;0.30;0.30;;;;;;;4.25;70.59;96336.41;5020558;28;20049;-72
2024/03/24 01:24:55;;;;;;;0.28;0.28;;;;;;;4.21;71.22;96335.53;5004237;28;20060;-70
2024/03/24 01:27:21;;;;;;;0.30;0.30;;;;;;;4.16;71.26;96333.03;5004786;28;20061;-70
2024/03/24 01:29:46;;;;;;;0.30;0.30;;;;;;;3.56;71.93;96261.94;5004066;28;20140;-71
2024/03/24 01:32:12;;;;;;;0.30;0.30;;;;;;;4.11;71.57;96329.75;5020550;28;20066;-70
2024/03/24 01:34:38;;;;;;;0.30;0.30;;;;;;;3.88;71.30;96315.75;5004351;28;20053;-70
2024/03/24 01:37:04;;;;;;;0.30;0.30;;;;;;;3.89;72.42;96344.72;5021162;28;20057;-71
2024/03/24 01:39:29;;;;;;;0.30;0.30;;;;;;;3.97;71.72;96327.34;5004356;28;20056;-72
2024/03/24 01:41:55;;;;;;;0.30;0.30;;;;;;;3.95;71.85;96332.38;5001354;28;20049;-70
2024/03/24 01:44:21;;;;;;;0.30;0.30;;;;;;;3.93;72.24;96337.41;5000868;28;20057;-72
2024/03/24 01:46:47;;;;;;;0.30;0.30;;;;;;;4.03;72.12;96330.66;4984460;28;20058;-72
2024/03/24 01:49:12;;;;;;;0.30;0.30;;;;;;;3.85;73.23;96330.13;5010233;28;20050;-70
2024/03/24 01:51:38;;;;;;;0.30;0.30;;;;;;;3.50;73.32;96282.47;5020283;28;20069;-73
2024/03/24 01:54:05;;;;;;;0.30;0.30;;;;;;;3.99;73.17;96330.56;5003733;28;20060;-71
2024/03/24 01:56:32;;;;;;;0.30;0.30;;;;;;;3.99;72.11;96336.03;5020218;28;20085;-72
2024/03/24 01:58:57;;;;;;;0.30;0.30;;;;;;;3.31;72.18;96224.78;5006819;28;20054;-71
2024/03/24 02:01:23;;;;;;;0.30;0.30;;;;;;;4.03;72.37;96320.50;5024542;28;20697;-72
2024/03/24 02:03:49;;;;;;;0.30;0.30;;;;;;;3.83;71.52;96283.09;5023884;28;20049;-71
2024/03/24 02:06:15;;;;;;;0.30;0.30;;;;;;;3.94;72.71;96319.84;5008236;28;20064;-71
2024/03/24 02:08:40;;;;;;;0.20;0.20;;;;;;;3.92;73.32;96327.59;5007694;28;20103;-71
2024/03/24 02:11:06;;;;;;;0.22;0.22;;;;;;;3.57;72.86;96277.22;5023934;28;20103;-70
2024/03/24 02:13:32;;;;;;;0.30;0.30;;;;;;;3.87;73.16;96322.34;5023759;28;20057;-72
2024/03/24 02:15:58;;;;;;;0.30;0.30;;;;;;;3.89;73.43;96327.50;5007525;28;20073;-71
2024/03/24 02:18:24;;;;;;;0.20;0.20;;;;;;;3.77;73.88;96303.66;5023710;28;20132;-71
2024/03/24 02:20:50;;;;;;;0.30;0.30;;;;;;;3.89;74.08;96320.06;5024748;28;20065;-72
2024/03/24 02:23:16;;;;;;;0.25;0.25;;;;;;;3.91;74.03;96312.31;5007961;28;20057;-71
2024/03/24 02:25:42;;;;;;;0.25;0.25;;;;;;;3.83;74.46;96309.69;5024829;28;20159;-72
2024/03/24 02:28:08;;;;;;;0.30;0.30;;;;;;;3.80;73.67;96286.53;5023442;28;20594;-71
2024/03/24 02:30:34;;;;;;;0.30;0.30;;;;;;;3.90;73.90;96307.19;5023544;28;20061;-72
2024/03/24 02:33:02;;;;;;;0.30;0.30;;;;;;;3.97;73.65;96290.94;5023564;28;20057;-72
2024/03/24 02:35:28;;;;;;;0.20;0.20;;;;;;;3.48;73.31;96240.94;5023448;28;20053;-72
2024/03/24 02:37:54;;;;;;;0.20;0.20;;;;;;;3.71;73.39;96280.41;5023386;28;20060;-71
2024/03/24 02:40:20;;;;;;;0.30;0.30;;;;;;;3.88;72.49;96293.81;5023365;28;20053;-71
2024/03/24 02:42:46;;;;;;;0.30;0.30;;;;;;;3.76;73.42;96302.03;5016672;28;20049;-71
2024/03/24 02:45:12;;;;;;;0.30;0.30;;;;;;;3.39;73.25;96248.50;5003718;28;20107;-72
2024/03/24 02:47:40;;;;;;;0.30;0.30;;;;;;;3.40;73.66;96244.59;5003939;28;20062;-73
2024/03/24 02:50:07;;;;;;;0.22;0.22;;;;;;;3.74;73.71;96292.59;5003642;28;20276;-72
2024/03/24 02:52:33;;;;;;;0.30;0.30;;;;;;;3.41;74.25;96262.63;5011899;28;20057;-72
2024/03/24 02:54:59;;;;;;;0.30;0.30;;;;;;;3.67;74.37;96292.34;5023167;28;20045;-72
2024/03/24 02:57:25;;;;;;;0.20;0.20;;;;;;;3.07;73.59;96181.03;5022445;28;20111;-72
2024/03/24 02:59:51;;;;;;;0.30;0.30;;;;;;;3.57;73.42;96277.22;5023144;28;20579;-72
2024/03/24 03:02:17;;;;;;;0.30;0.30;;;;;;;3.62;74.39;96276.97;5022508;28;20053;-72
2024/03/24 03:04:42;;;;;;;0.20;0.20;;;;;;;3.64;75.17;96290.31;5006722;28;20099;-71
2024/03/24 03:07:08;;;;;;;0.30;0.30;;;;;;;0.36;74.64;95756.41;5023151;28;20099;-72
2024/03/24 03:09:34;;;;;;;0.30;0.30;;;;;;;3.66;75.48;96291.59;5022964;28;20049;-71
2024/03/24 03:12:00;;;;;;;0.30;0.30;;;;;;;3.49;75.80;96259.00;5018899;28;20049;-71
2024/03/24 03:14:25;;;;;;;0.30;0.30;;;;;;;3.67;76.01;96274.00;5036505;28;20449;-72
2024/03/24 03:16:51;;;;;;;0.30;0.30;;;;;;;2.74;75.64;96106.53;5023075;28;20509;-73
2024/03/24 03:19:17;;;;;;;0.30;0.30;;;;;;;3.85;75.00;96267.13;5022917;28;20132;-72
2024/03/24 03:21:42;;;;;;;0.30;0.30;;;;;;;3.81;75.10;96268.94;5008802;28;20059;-73
2024/03/24 03:24:08;;;;;;;0.20;0.20;;;;;;;3.79;75.75;96263.03;5006411;28;20053;-72
2024/03/24 03:26:34;;;;;;;0.30;0.30;;;;;;;3.96;74.67;96256.47;5005988;28;20119;-70
2024/03/24 03:29:00;;;;;;;0.20;0.20;;;;;;;3.90;74.64;96252.38;5022272;28;20104;-72
2024/03/24 03:31:25;;;;;;;0.28;0.28;;;;;;;3.90;75.31;96264.16;5022319;28;20461;-72
2024/03/24 03:33:51;;;;;;;0.30;0.30;;;;;;;3.80;76.33;96259.16;5022148;28;20057;-70
2024/03/24 03:36:17;;;;;;;0.30;0.30;;;;;;;3.45;75.79;96203.31;5027020;28;20083;-72
2024/03/24 03:38:43;;;;;;;0.30;0.30;;;;;;;3.80;75.70;96264.63;5026649;28;20122;-72
2024/03/24 03:41:08;;;;;;;0.30;0.30;;;;;;;3.13;75.69;96163.22;5006171;28;20061;-72
2024/03/24 03:43:34;;;;;;;0.30;0.30;;;;;;;3.74;75.93;96260.53;5008909;28;20075;-72
2024/03/24 03:46:01;;;;;;;0.30;0.30;;;;;;;3.35;75.58;96209.25;5002039;28;20125;-72
2024/03/24 03:48:27;;;;;;;0.30;0.30;;;;;;;3.74;75.44;96260.53;4985870;28;20130;-73
2024/03/24 03:50:53;;;;;;;0.30;0.30;;;;;;;3.66;75.61;96258.72;5002635;28;20053;-72
2024/03/24 03:53:23;;;;;;;0.22;0.22;;;;;;;3.68;76.22;96261.94;5000376;28;20060;-72
2024/03/24 03:55:51;;;;;;;0.20;0.20;;;;;;;3.40;76.28;96228.19;5006154;28;20061;-72
2024/03/24 03:58:21;;;;;;;0.30;0.30;;;;;;;3.78;76.11;96261.44;5021996;28;20057;-71
2024/03/24 04:00:50;;;;;;;0.30;0.30;;;;;;;3.75;75.61;96256.66;5022184;28;20057;-71
2024/03/24 04:03:16;;;;;;;0.30;0.30;;;;;;;3.56;76.83;96250.97;5022460;28;20431;-72
2024/03/24 04:05:42;;;;;;;0.30;0.30;;;;;;;3.51;78.40;96248.47;5021921;28;20570;-72
2024/03/24 04:08:09;;;;;;;0.30;0.30;;;;;;;3.47;77.87;96228.41;5021229;28;20061;-71
2024/03/24 04:10:35;;;;;;;0.20;0.20;;;;;;;3.59;77.47;96263.97;5021884;28;20103;-70
2024/03/24 04:13:03;;;;;;;0.30;0.30;;;;;;;3.35;76.88;96206.50;5021458;28;20140;-71
2024/03/24 04:15:29;;;;;;;0.30;0.30;;;;;;;3.68;75.99;96256.44;5021714;28;20057;-69
2024/03/24 04:17:55;;;;;;;0.20;0.20;;;;;;;3.73;76.04;96258.91;5021098;28;20057;-71
2024/03/24 04:20:21;;;;;;;0.20;0.20;;;;;;;3.77;75.53;96262.59;5004021;28;20057;-70
2024/03/24 04:22:48;;;;;;;0.30;0.30;;;;;;;3.74;75.20;96257.78;5021185;28;20108;-69
2024/03/24 04:25:14;;;;;;;0.20;0.20;;;;;;;3.77;75.23;96250.81;5021653;28;20068;-72
2024/03/24 04:27:40;;;;;;;0.30;0.30;;;;;;;3.70;75.49;96251.41;5021490;28;20057;-72
2024/03/24 04:30:09;;;;;;;0.30;0.30;;;;;;;3.87;75.27;96253.88;5021689;28;20420;-72
2024/03/24 04:32:35;;;;;;;0.30;0.30;;;;;;;3.85;76.12;96250.69;5021532;28;20425;-71
2024/03/24 04:35:02;;;;;;;0.30;0.30;;;;;;;3.64;76.31;96200.75;5005728;28;20179;-70
2024/03/24 04:37:28;;;;;;;0.25;0.25;;;;;;;3.90;75.86;96247.72;5021489;28;20058;-72
2024/03/24 04:39:54;;;;;;;0.20;0.20;;;;;;;3.49;75.79;96201.50;5021665;28;20443;-72
2024/03/24 04:42:20;;;;;;;0.30;0.30;;;;;;;3.93;76.12;96244.28;5018122;28;20049;-71
2024/03/24 04:44:46;;;;;;;0.30;0.30;;;;;;;3.96;76.01;96265.50;5001546;28;20068;-72
2024/03/24 04:47:11;;;;;;;0.30;0.30;;;;;;;3.89;75.32;96235.16;5000966;28;20116;-69
2024/03/24 04:49:37;;;;;;;0.30;0.30;;;;;;;4.07;76.87;96247.44;5001331;28;20056;-71
2024/03/24 04:52:04;;;;;;;0.30;0.30;;;;;;;4.09;77.64;96244.34;4988897;28;20045;-71
2024/03/24 04:54:30;;;;;;;0.30;0.30;;;;;;;4.38;75.33;96247.50;5004432;28;20072;-68
2024/03/24 04:56:55;;;;;;;0.30;0.30;;;;;;;4.52;74.31;96250.63;5004681;28;20890;-70
2024/03/24 04:59:21;;;;;;;0.30;0.30;;;;;;;4.52;73.80;96225.97;5020679;28;20072;-70
2024/03/24 05:01:47;;;;;;;0.30;0.30;;;;;;;4.31;73.08;96187.03;5020736;28;20061;-70
2024/03/24 05:04:14;;;;;;;0.30;0.30;;;;;;;4.91;72.46;96248.13;5020498;28;20147;-69
2024/03/24 05:06:41;;;;;;;0.30;0.30;;;;;;;5.07;72.08;96246.19;5020743;28;20057;-71
2024/03/24 05:09:08;;;;;;;0.30;0.30;;;;;;;5.30;71.72;96244.41;5020754;28;20068;-72
2024/03/24 05:11:34;;;;;;;0.30;0.30;;;;;;;5.52;70.05;96255.53;5020640;28;20574;-71
2024/03/24 05:14:00;;;;;;;0.30;0.30;;;;;;;5.71;69.13;96249.28;5021577;28;20072;-71
2024/03/24 05:16:31;;;;;;;0.30;0.30;;;;;;;5.93;68.83;96223.91;5021512;28;20064;-71
2024/03/24 05:19:01;;;;;;;0.30;0.30;;;;;;;6.41;67.06;96245.34;5021231;28;20057;-72
2024/03/24 05:21:26;;;;;;;0.30;0.30;;;;;;;6.40;65.55;96191.50;5020863;28;20053;-73
2024/03/24 05:23:52;;;;;;;0.30;0.30;;;;;;;6.38;64.13;96152.56;5003856;28;20061;-72
2024/03/24 05:26:18;;;;;;;0.40;0.40;;;;;;;7.15;63.53;96243.94;5020506;28;20057;-71
2024/03/24 05:28:44;;;;;;;0.40;0.40;;;;;;;7.42;62.64;96245.56;5020524;28;20115;-73
2024/03/24 05:31:09;;;;;;;0.30;0.30;;;;;;;7.67;62.40;96249.50;5020926;28;20095;-72
2024/03/24 05:33:35;;;;;;;0.30;0.30;;;;;;;7.83;62.01;96243.84;5024149;28;20080;-72
2024/03/24 05:36:03;;;;;;;0.38;0.38;;;;;;;7.99;61.63;96238.94;5007671;28;20114;-72
2024/03/24 05:38:32;;;;;;;0.38;0.38;;;;;;;7.81;62.69;96237.91;5017127;28;20111;-72
2024/03/24 05:41:04;;;;;;;0.40;0.40;;;;;;;7.93;62.56;96243.19;5039163;28;20070;-72
2024/03/24 05:43:30;;;;;;;0.40;0.40;;;;;;;8.09;62.59;96241.06;4995796;28;20132;-73
2024/03/24 05:45:56;;;;;;;0.30;0.30;;;;;;;8.29;61.89;96229.53;5004782;28;20069;-72
2024/03/24 05:48:23;;;;;;;0.30;0.30;;;;;;;8.30;61.94;96230.34;4988432;28;20058;-71
2024/03/24 05:50:59;;;;;;;0.40;0.40;;;;;;;8.39;61.31;96228.09;5005025;28;20054;-72
2024/03/24 05:53:25;;;;;;;0.35;0.35;;;;;;;6.28;61.16;95872.69;5020846;28;20068;-72
2024/03/24 05:55:51;;;;;;;0.40;0.40;;;;;;;8.70;61.67;96222.13;5024959;28;20473;-72
2024/03/24 05:58:18;;;;;;;0.40;0.40;;;;;;;8.88;61.87;96234.16;5024383;28;20061;-72
2024/03/24 06:00:45;;;;;;;0.40;0.40;;;;;;;8.99;61.83;96199.16;5024686;28;20064;-72
2024/03/24 06:03:10;;;;;;;0.50;0.50;;;;;;;9.00;61.73;96192.44;5023820;28;20512;-71
2024/03/24 06:05:38;;;;;;;0.40;0.40;;;;;;;9.09;63.02;96226.06;5023875;28;20060;-73
2024/03/24 06:08:10;;;;;;;0.40;0.40;;;;;;;9.19;63.45;96230.91;5024057;28;20057;-71
2024/03/24 06:10:37;;;;;;;0.40;0.40;;;;;;;9.33;63.40;96228.25;5024173;28;20417;-73
2024/03/24 06:13:03;;;;;;;0.50;0.50;;;;;;;8.98;63.70;96139.56;5023852;28;20068;-72
2024/03/24 06:15:29;;;;;;;0.40;0.40;;;;;;;10.00;62.70;96229.56;5023967;28;20057;-72
2024/03/24 06:17:55;;;;;;;0.50;0.50;;;;;;;10.30;61.09;96205.25;5007314;28;20054;-73
2024/03/24 06:20:21;;;;;;;0.50;0.50;;;;;;;10.84;59.02;96220.84;5023706;28;20053;-72
2024/03/24 06:22:46;;;;;;;0.50;0.50;;;;;;;11.03;57.31;96225.25;5023704;28;20057;-72
2024/03/24 06:25:12;;;;;;;0.50;0.50;;;;;;;11.17;56.37;96197.53;5023727;28;20053;-72
2024/03/24 06:27:38;;;;;;;0.50;0.50;;;;;;;11.56;55.83;96201.91;5018967;28;20068;-73
2024/03/24 06:30:04;;;;;;;0.50;0.50;;;;;;;11.90;54.99;96199.53;4984813;28;20054;-72
2024/03/24 06:32:31;;;;;;;0.60;0.60;;;;;;;12.12;54.58;96160.22;5001680;28;20523;-72
2024/03/24 06:34:57;;;;;;;0.60;0.60;;;;;;;12.49;52.75;96168.00;5007580;28;20508;-71
2024/03/24 06:37:23;;;;;;;0.50;0.50;;;;;;;13.02;52.55;96199.13;5023811;28;20057;-73
2024/03/24 06:39:51;;;;;;;0.60;0.60;;;;;;;12.97;51.99;96193.16;5023330;28;20053;-71
2024/03/24 06:42:17;;;;;;;0.50;0.50;;;;;;;12.78;51.60;96150.00;5013032;28;20077;-73
2024/03/24 06:44:44;;;;;;;0.60;0.60;;;;;;;13.28;49.20;96192.97;4986127;28;20058;-74
2024/03/24 06:47:10;;;;;;;0.60;0.60;;;;;;;13.09;49.37;96195.47;5003058;28;20042;-72
2024/03/24 06:49:37;;;;;;;0.60;0.60;;;;;;;13.10;48.29;96197.84;5002967;28;20061;-71
2024/03/24 06:52:03;;;;;;;0.60;0.60;;;;;;;13.14;47.77;96193.06;4991102;28;20922;-73
2024/03/24 06:54:29;;;;;;;0.60;0.60;;;;;;;12.54;48.45;96159.25;5006716;28;20083;-72
2024/03/24 06:56:56;;;;;;;0.60;0.60;;;;;;;13.06;47.82;96190.75;5022690;28;20080;-73
2024/03/24 06:59:22;;;;;;;0.60;0.60;;;;;;;13.04;47.33;96182.03;5023181;28;20068;-72
2024/03/24 07:01:48;;;;;;;0.60;0.60;;;;;;;11.68;55.44;96139.72;5006273;28;20832;-72
2024/03/24 07:04:13;;;;;;;0.60;0.60;;;;;;;12.53;53.99;96195.78;5022829;28;20067;-73
2024/03/24 07:06:39;;;;;;;0.60;0.60;;;;;;;12.41;54.30;96149.78;5021797;28;20054;-73
2024/03/24 07:09:06;;;;;;;0.60;0.60;;;;;;;12.49;54.87;96186.66;5021773;28;20049;-72
2024/03/24 07:11:32;;;;;;;0.60;0.60;;;;;;;12.19;55.12;96142.72;5021549;28;20523;-71
2024/03/24 07:13:58;;;;;;;0.60;0.60;;;;;;;12.74;54.89;96171.44;5021929;28;20436;-71
2024/03/24 07:16:24;;;;;;;0.60;0.60;;;;;;;12.01;56.22;96117.81;5021518;28;20055;-72
2024/03/24 07:18:49;;;;;;;0.50;0.50;;;;;;;12.72;55.16;96170.28;5021296;28;20099;-73
2024/03/24 07:21:15;;;;;;;0.60;0.60;;;;;;;12.93;54.18;96170.94;5005588;28;20053;-73
2024/03/24 07:23:41;;;;;;;0.50;0.50;;;;;;;13.06;53.58;96169.28;5022178;28;20053;-73
2024/03/24 07:26:07;;;;;;;0.60;0.60;;;;;;;12.81;53.99;96135.28;5005664;28;20064;-73
2024/03/24 07:28:32;;;;;;;0.60;0.60;;;;;;;13.35;53.14;96162.34;5022708;28;20050;-72
2024/03/24 07:30:58;;;;;;;0.60;0.60;;;;;;;13.40;52.00;96134.06;5022560;28;20603;-73
2024/03/24 07:33:24;;;;;;;0.50;0.50;;;;;;;13.53;50.62;96126.78;5005459;28;20061;-73
2024/03/24 07:35:50;;;;;;;0.63;0.63;;;;;;;13.92;50.36;96182.09;5021729;28;20069;-71
2024/03/24 07:38:16;;;;;;;0.60;0.60;;;;;;;13.54;49.39;96156.22;5022255;28;20045;-71
2024/03/24 07:40:43;;;;;;;0.60;0.60;;;;;;;13.79;48.18;96161.53;5022877;28;20064;-74
2024/03/24 07:43:10;;;;;;;0.60;0.60;;;;;;;14.18;47.31;96172.28;5017171;28;20123;-72
2024/03/24 07:45:36;;;;;;;0.60;0.60;;;;;;;13.98;46.49;96130.31;5002874;28;20085;-73
2024/03/24 07:48:02;;;;;;;0.60;0.60;;;;;;;14.45;45.59;96168.41;5002147;28;20065;-72
2024/03/24 07:50:28;;;;;;;0.77;0.77;;;;;;;14.24;45.08;96131.63;4986700;28;20559;-74
2024/03/24 07:52:54;;;;;;;0.60;0.60;;;;;;;14.77;44.77;96170.78;5014075;28;20430;-72
2024/03/24 07:55:19;;;;;;;0.60;0.60;;;;;;;14.92;44.39;96163.81;5022489;28;20049;-70
2024/03/24 07:57:45;;;;;;;0.70;0.70;;;;;;;14.60;44.24;96100.13;5021761;28;20115;-72
2024/03/24 08:00:12;;;;;;;0.70;0.70;;;;;;;15.08;44.44;96158.38;5022022;28;20118;-74
2024/03/24 08:02:38;;;;;;;0.60;0.60;;;;;;;15.32;43.53;96151.63;5021494;28;20050;-73
2024/03/24 08:05:04;;;;;;;0.60;0.60;;;;;;;14.64;44.17;96158.59;5021858;28;20110;-72
2024/03/24 08:07:29;;;;;;;0.70;0.70;;;;;;;14.90;44.70;96163.44;5021447;28;20058;-72
2024/03/24 08:09:55;;;;;;;0.70;0.70;;;;;;;14.58;44.43;96074.69;5021447;28;20053;-73
2024/03/24 08:12:21;;;;;;;0.70;0.70;;;;;;;13.49;43.14;95820.03;5021131;28;20065;-70
2024/03/24 08:14:47;;;;;;;0.70;0.70;;;;;;;15.83;43.33;96136.44;5020583;28;20132;-72
2024/03/24 08:17:13;;;;;;;0.75;0.75;;;;;;;16.12;42.71;96132.69;5021254;28;20175;-73
2024/03/24 08:19:39;;;;;;;0.70;0.70;;;;;;;15.85;42.39;96134.81;5021344;28;20068;-71
2024/03/24 08:22:04;;;;;;;0.77;0.77;;;;;;;16.22;42.51;96126.13;5021212;28;20331;-73
2024/03/24 08:24:30;;;;;;;0.80;0.80;;;;;;;16.60;42.04;96118.97;5021416;28;20127;-73
2024/03/24 08:26:56;;;;;;;0.80;0.80;;;;;;;16.95;41.06;96116.59;5021402;28;20222;-74
2024/03/24 08:29:22;;;;;;;0.70;0.70;;;;;;;16.74;41.25;96075.16;5014185;28;20057;-73
2024/03/24 08:31:47;;;;;;;0.75;0.75;;;;;;;17.10;42.59;96081.50;5021948;28;20072;-73
2024/03/24 08:34:13;;;;;;;0.80;0.80;;;;;;;16.07;41.93;95926.47;4995779;28;20068;-74
2024/03/24 08:36:39;;;;;;;0.80;0.80;;;;;;;16.86;41.54;96024.09;4984447;28;20103;-66
2024/03/24 08:39:05;;;;;;;0.90;0.90;;;;;;;16.87;41.20;96014.50;4986496;28;20426;-66
2024/03/24 08:41:31;;;;;;;0.80;0.80;;;;;;;17.58;40.74;96095.50;4994408;28;20547;-78
2024/03/24 08:43:57;;;;;;;0.80;0.80;;;;;;;16.92;40.79;95994.38;4980173;28;20054;-68
2024/03/24 08:46:25;;;;;;;0.82;0.82;;;;;;;17.74;40.70;96089.88;4980986;28;20525;-73
2024/03/24 08:48:51;;;;;;;0.80;0.80;;;;;;;17.92;40.18;96091.00;5019607;28;20080;-72
2024/03/24 08:51:17;;;;;;;0.80;0.80;;;;;;;17.84;39.34;96080.44;5019663;28;20536;-66
2024/03/24 08:53:42;;;;;;;0.80;0.80;;;;;;;17.92;39.09;96079.78;5011042;28;20099;-74
2024/03/24 08:56:08;;;;;;;0.80;0.80;;;;;;;16.85;39.01;95952.63;4998520;28;20571;-62
2024/03/24 08:58:34;;;;;;;0.80;0.80;;;;;;;16.99;39.81;96081.75;4985843;28;20544;-71
2024/03/24 09:00:59;;;;;;;0.70;0.70;;;;;;;17.58;39.46;96075.91;4999743;28;20057;-63
2024/03/24 09:03:25;;;;;;;0.80;0.80;;;;;;;17.70;38.71;96055.59;5016281;28;20081;-64
2024/03/24 09:05:51;;;;;;;0.90;0.90;;;;;;;17.86;39.16;96064.75;5020178;28;20064;-61
2024/03/24 09:08:17;;;;;;;0.85;0.85;;;;;;;18.09;39.04;96066.53;5020459;28;20057;-62
2024/03/24 09:10:42;;;;;;;0.85;0.85;;;;;;;18.00;38.65;96041.16;5020936;28;20064;-63
2024/03/24 09:13:08;;;;;;;0.75;0.75;;;;;;;17.97;38.48;96036.44;5020583;28;20131;-63
2024/03/24 09:15:34;;;;;;;0.90;0.90;;;;;;;18.42;38.18;96056.78;5020742;28;20069;-63
2024/03/24 09:18:01;;;;;;;0.82;0.82;;;;;;;18.46;38.99;96059.50;5020715;28;20053;-63
2024/03/24 09:20:27;;;;;;;0.90;0.90;;;;;;;18.70;38.01;96050.31;5020459;28;20057;-63
2024/03/24 09:22:52;;;;;;;0.80;0.80;;;;;;;18.94;37.14;96048.78;5020593;28;20489;-62
2024/03/24 09:25:18;;;;;;;0.80;0.80;;;;;;;19.01;38.01;96042.94;5004540;28;20057;-62
2024/03/24 09:27:50;;;;;;;0.90;0.90;;;;;;;19.23;38.51;96046.63;5020819;28;20483;-62
2024/03/24 09:30:16;;;;;;;0.90;0.90;;;;;;;19.21;36.70;96037.88;5021326;28;20057;-62
2024/03/24 09:32:42;;;;;;;0.80;0.80;;;;;;;18.83;37.86;96034.28;5020359;28;20539;-63
2024/03/24 09:35:09;;;;;;;0.70;0.70;;;;;;;19.13;38.14;96028.09;5020759;28;20148;-64
2024/03/24 09:37:35;;;;;;;0.88;0.88;;;;;;;19.01;37.59;95981.19;5020867;28;20053;-63
2024/03/24 09:40:01;;;;;;;0.73;0.73;;;;;;;19.09;37.09;95976.91;5020325;28;20061;-64
2024/03/24 09:42:28;;;;;;;0.90;0.90;;;;;;;19.51;36.85;96009.19;5020235;28;20069;-62
2024/03/24 09:44:55;;;;;;;0.80;0.80;;;;;;;19.79;36.70;95995.41;5012990;28;20080;-62
2024/03/24 09:47:23;;;;;;;0.80;0.80;;;;;;;19.89;37.36;95988.59;5000588;28;20096;-62
2024/03/24 09:49:50;;;;;;;0.90;0.90;;;;;;;19.51;36.48;95963.44;5000822;28;20073;-62
2024/03/24 09:52:20;;;;;;;0.90;0.90;;;;;;;19.61;36.93;95922.19;5006968;28;20079;-63
2024/03/24 09:54:47;;;;;;;0.90;0.90;;;;;;;19.54;36.58;95938.06;5003583;28;20495;-62
2024/03/24 09:57:13;;;;;;;0.90;0.90;;;;;;;20.10;36.62;95968.13;5019716;28;20038;-63
2024/03/24 09:59:41;;;;;;;0.80;0.80;;;;;;;20.35;36.89;95959.56;5019888;28;20691;-63
2024/03/24 10:02:10;;;;;;;0.80;0.80;;;;;;;19.87;36.16;95921.59;5019983;28;20050;-63
2024/03/24 10:04:36;;;;;;;0.85;0.85;;;;;;;20.21;35.91;95951.69;5003825;28;20065;-62
2024/03/24 10:07:02;;;;;;;0.80;0.80;;;;;;;19.96;36.37;95941.34;5020281;28;20107;-62
2024/03/24 10:09:28;;;;;;;0.90;0.90;;;;;;;20.23;35.62;95952.00;5021105;28;20057;-62
2024/03/24 10:11:53;;;;;;;1.00;1.00;;;;;;;19.49;35.84;95893.69;5003961;28;20054;-62
2024/03/24 10:14:25;;;;;;;0.93;0.93;;;;;;;19.62;35.91;95946.25;5020793;28;20050;-62
2024/03/24 10:16:51;;;;;;;1.00;1.00;;;;;;;19.70;35.57;95936.28;5020445;28;20057;-63
2024/03/24 10:19:17;;;;;;;0.90;0.90;;;;;;;19.93;34.88;95916.16;5021461;28;20542;-62
2024/03/24 10:21:43;;;;;;;0.85;0.85;;;;;;;19.86;34.96;95866.63;4987934;28;20058;-62
2024/03/24 10:24:09;;;;;;;0.80;0.80;;;;;;;20.52;35.34;95927.94;5006912;28;20053;-64
2024/03/24 10:26:39;;;;;;;1.00;1.00;;;;;;;19.76;36.25;95923.25;5006856;28;20099;-61
2024/03/24 10:29:05;;;;;;;0.90;0.90;;;;;;;19.89;36.10;95871.31;5023337;28;20064;-62
2024/03/24 10:31:36;;;;;;;1.00;1.00;;;;;;;20.22;36.52;95916.66;5023664;28;20061;-61
2024/03/24 10:34:04;;;;;;;0.90;0.90;;;;;;;20.46;35.98;95898.84;5023307;28;20199;-62
2024/03/24 10:36:31;;;;;;;0.90;0.90;;;;;;;19.68;37.00;95893.84;5023343;28;20061;-62
2024/03/24 10:38:58;;;;;;;0.90;0.90;;;;;;;19.24;38.30;95834.78;5007109;28;20060;-61
2024/03/24 10:41:26;;;;;;;0.90;0.90;;;;;;;20.12;36.70;95884.13;5023132;28;20061;-61
2024/03/24 10:43:52;;;;;;;0.90;0.90;;;;;;;19.47;37.34;95836.41;5023828;28;20057;-62
2024/03/24 10:46:19;;;;;;;0.80;0.80;;;;;;;19.63;37.85;95902.84;5004310;28;20060;-62
2024/03/24 10:48:46;;;;;;;0.80;0.80;;;;;;;20.08;37.46;95895.50;5003430;28;20053;-61
2024/03/24 10:51:20;;;;;;;0.80;0.80;;;;;;;19.96;37.24;95879.50;5003130;28;20407;-62
2024/03/24 10:53:47;;;;;;;;;;;;;;;19.88;37.23;95864.16;5022257;28;20060;-61
2024/03/24 10:56:15;;;;;;;0.80;0.80;;;;;;;19.37;37.69;95877.69;5023443;28;19925;-63
2024/03/24 10:58:42;;;;;;;0.80;0.80;;;;;;;19.42;37.60;95849.03;5021999;28;20053;-61
2024/03/24 11:01:09;;;;;;;0.90;0.90;;;;;;;19.62;37.58;95856.34;5022510;28;20516;-62
2024/03/24 11:03:37;;;;;;;0.80;0.80;;;;;;;19.87;38.50;95850.56;5022755;28;20065;-62
2024/03/24 11:06:04;;;;;;;0.90;0.90;;;;;;;19.64;37.80;95848.22;5022457;28;20088;-61
2024/03/24 11:08:30;;;;;;;0.93;0.93;;;;;;;19.87;37.19;95844.94;5022572;28;20505;-61
2024/03/24 11:11:00;;;;;;;0.80;0.80;;;;;;;19.42;38.75;95792.84;5022693;28;20083;-63
2024/03/24 11:13:33;;;;;;;0.80;0.80;;;;;;;19.48;37.78;95838.75;5022454;28;20837;-62
2024/03/24 11:15:59;;;;;;;0.80;0.80;;;;;;;19.54;38.91;95839.72;5006414;28;20057;-64
2024/03/24 11:18:29;;;;;;;0.90;0.90;;;;;;;19.15;38.42;95823.50;5022262;28;20088;-62
2024/03/24 11:21:00;;;;;;;0.70;0.70;;;;;;;17.10;38.20;95496.69;5022958;28;20127;-62
2024/03/24 11:23:40;;;;;;;0.73;0.73;;;;;;;19.01;39.09;95801.56;5022648;28;20065;-63
2024/03/24 11:26:15;;;;;;;0.80;0.80;;;;;;;19.54;38.77;95817.25;5006240;28;20440;-64
2024/03/24 11:28:48;;;;;;;0.80;0.80;;;;;;;19.88;38.23;95816.38;4983536;28;20456;-62
2024/03/24 11:31:20;;;;;;;0.90;0.90;;;;;;;19.99;38.77;95808.28;4986373;28;20061;-62
2024/03/24 11:34:15;;;;;;;0.90;0.90;;;;;;;20.27;38.35;95800.78;5002425;28;20053;-62
2024/03/24 11:36:43;;;;;;;1.00;1.00;;;;;;;20.81;36.67;95790.44;5002969;28;20062;-62